Time;durP1;ratioP1;P1;durP2;ratioP2;P2;SDS_P1;SDS_P2;PMS_P1;PMS_P2;Temp;Humidity;BMP_temperature;BMP_pressure;BME280_temperature;BME280_humidity;BME280_pressure;Samples;Min_cycle;Max_cycle;Signal;HPM_P1;HPM_P2
2023/01/19 00:00:44;;;;;;;21.48;12.82;;;-3.20;11.70;;;;;;5053860;28;20060;-80
2023/01/19 00:03:14;;;;;;;23.48;12.38;;;-3.20;13.80;;;;;;5053505;28;20032;-80
2023/01/19 00:05:43;;;;;;;24.45;12.07;;;-3.20;15.60;;;;;;5055778;28;20040;-80
2023/01/19 00:08:16;;;;;;;24.40;11.43;;;-3.20;18.40;;;;;;5054255;28;20041;-80
2023/01/19 00:10:47;;;;;;;22.77;12.27;;;-3.20;18.10;;;;;;5056155;28;20052;-80
2023/01/19 00:13:14;;;;;;;25.45;12.63;;;-3.20;20.30;;;;;;5050007;28;20360;-79
2023/01/19 00:15:40;;;;;;;23.15;12.63;;;-3.20;24.90;;;;;;5053979;28;20021;-79
2023/01/19 00:18:07;;;;;;;21.52;11.73;;;-3.10;30.30;;;;;;5054222;28;20037;-79
2023/01/19 00:20:34;;;;;;;25.13;11.95;;;-3.00;29.60;;;;;;5054765;28;20041;-80
2023/01/19 00:23:02;;;;;;;18.52;11.27;;;-3.10;25.00;;;;;;5053634;28;20037;-80
2023/01/19 00:25:28;;;;;;;25.25;12.45;;;-3.10;24.50;;;;;;5054282;28;20048;-80
2023/01/19 00:27:54;;;;;;;29.77;14.60;;;-3.20;23.30;;;;;;5055003;28;20033;-79
2023/01/19 00:30:20;;;;;;;30.10;14.95;;;-3.20;24.10;;;;;;5052542;28;20044;-80
2023/01/19 00:32:46;;;;;;;28.00;14.48;;;-3.20;28.00;;;;;;5053560;28;20037;-79
2023/01/19 00:35:13;;;;;;;25.55;13.35;;;-3.20;26.00;;;;;;5053797;28;20036;-80
2023/01/19 00:37:39;;;;;;;25.77;13.52;;;-3.10;30.00;;;;;;5054419;28;20044;-78
2023/01/19 00:40:06;;;;;;;23.60;12.88;;;-3.00;32.40;;;;;;5068577;28;20401;-76
2023/01/19 00:42:47;;;;;;;22.65;12.38;;;-3.00;28.80;;;;;;5053639;28;20040;-79
2023/01/19 00:45:17;;;;;;;22.35;11.80;;;-3.00;25.20;;;;;;5041492;28;20042;-80
2023/01/19 00:47:44;;;;;;;22.77;10.77;;;-3.00;24.30;;;;;;5054050;28;20037;-80
2023/01/19 00:50:11;;;;;;;26.48;13.18;;;-3.00;22.90;;;;;;5054092;28;20029;-78
2023/01/19 00:52:39;;;;;;;26.08;12.13;;;-3.00;23.80;;;;;;5053029;28;20065;-85
2023/01/19 00:55:10;;;;;;;22.60;11.48;;;-3.00;24.70;;;;;;5054612;28;20394;-81
2023/01/19 00:57:37;;;;;;;21.77;10.93;;;-3.00;24.40;;;;;;5052871;28;20501;-79
2023/01/19 01:00:06;;;;;;;18.88;10.30;;;-3.00;23.90;;;;;;5053390;28;20045;-79
2023/01/19 01:02:32;;;;;;;24.60;11.70;;;-3.00;23.60;;;;;;5053213;28;20033;-79
2023/01/19 01:05:01;;;;;;;17.33;10.50;;;-3.00;23.00;;;;;;5054103;28;20041;-79
2023/01/19 01:07:29;;;;;;;22.00;10.98;;;-3.00;24.20;;;;;;5052212;28;20041;-79
2023/01/19 01:09:58;;;;;;;22.17;12.30;;;-2.90;25.40;;;;;;5053855;28;20040;-78
2023/01/19 01:12:24;;;;;;;17.23;10.38;;;-2.90;26.10;;;;;;5051846;28;20029;-79
2023/01/19 01:14:50;;;;;;;19.63;11.00;;;-2.90;28.70;;;;;;5052768;28;20040;-79
2023/01/19 01:17:16;;;;;;;23.23;10.55;;;-2.90;28.70;;;;;;5053352;28;20041;-80
2023/01/19 01:19:43;;;;;;;24.00;13.00;;;-2.90;33.00;;;;;;5053524;28;20036;-80
2023/01/19 01:22:09;;;;;;;24.73;12.23;;;-2.80;34.90;;;;;;5052095;28;20079;-79
2023/01/19 01:24:35;;;;;;;24.73;12.98;;;-2.80;30.00;;;;;;5053719;28;20434;-79
2023/01/19 01:27:01;;;;;;;23.75;12.23;;;-2.90;28.10;;;;;;5053343;28;20036;-80
2023/01/19 01:29:28;;;;;;;19.58;12.50;;;-2.90;27.80;;;;;;5052844;28;20033;-79
2023/01/19 01:31:54;;;;;;;20.85;11.48;;;-3.00;27.20;;;;;;5051926;28;20029;-79
2023/01/19 01:34:20;;;;;;;23.10;11.85;;;-3.00;29.20;;;;;;5052708;28;20029;-79
2023/01/19 01:36:46;;;;;;;20.95;11.38;;;-3.00;33.70;;;;;;5053072;28;20025;-79
2023/01/19 01:39:12;;;;;;;25.70;14.23;;;-3.00;40.10;;;;;;5052718;28;20383;-79
2023/01/19 01:41:38;;;;;;;23.08;12.98;;;-2.90;42.60;;;;;;5051900;28;20351;-79
2023/01/19 01:44:48;;;;;;;24.85;13.15;;;-3.10;39.30;;;;;;5053813;28;20363;-80
2023/01/19 01:47:33;;;;;;;20.20;11.73;;;-3.10;38.50;;;;;;5052764;28;20033;-79
2023/01/19 01:50:17;;;;;;;26.90;14.18;;;-3.10;41.00;;;;;;5053440;28;20375;-79
2023/01/19 01:52:50;;;;;;;23.75;12.15;;;-3.10;48.40;;;;;;5051594;28;20037;-80
2023/01/19 01:55:20;;;;;;;22.02;12.02;;;-3.10;47.10;;;;;;5052217;28;20033;-80
2023/01/19 01:58:00;;;;;;;25.88;13.05;;;-3.10;46.80;;;;;;5051136;28;20044;-79
2023/01/19 02:00:26;;;;;;;23.33;12.40;;;-3.20;46.10;;;;;;5051192;28;20045;-80
2023/01/19 02:02:54;;;;;;;22.55;13.32;;;-3.20;48.50;;;;;;5051087;28;20052;-79
2023/01/19 02:05:22;;;;;;;25.38;13.18;;;-3.20;49.20;;;;;;5051807;28;20442;-79
2023/01/19 02:13:43;;;;;;;23.02;13.35;;;-3.60;43.40;;;;;;5052566;28;20394;-79
2023/01/19 02:16:11;;;;;;;21.98;12.18;;;-3.60;50.80;;;;;;5052218;28;20025;-78
2023/01/19 02:18:39;;;;;;;23.73;12.93;;;-3.60;54.40;;;;;;5052284;28;20064;-79
2023/01/19 02:21:11;;;;;;;25.85;13.27;;;-3.70;57.90;;;;;;5051232;28;20060;-78
2023/01/19 02:23:41;;;;;;;22.38;12.48;;;-3.60;60.90;;;;;;5052746;28;20051;-78
2023/01/19 02:26:10;;;;;;;26.58;12.65;;;-3.60;63.00;;;;;;5052325;28;20033;-79
2023/01/19 02:28:41;;;;;;;23.42;12.30;;;-3.70;65.20;;;;;;5052557;28;20037;-79
2023/01/19 02:31:07;;;;;;;28.50;13.95;;;-3.60;70.90;;;;;;5051199;28;20037;-79
2023/01/19 02:33:34;;;;;;;29.58;13.52;;;-3.50;82.70;;;;;;5051802;28;20036;-79
2023/01/19 02:36:01;;;;;;;31.60;16.33;;;-3.40;91.10;;;;;;5050955;28;20056;-79
2023/01/19 02:38:28;;;;;;;30.77;16.73;;;-3.30;95.50;;;;;;5051565;28;20032;-79
2023/01/19 02:40:56;;;;;;;34.10;16.45;;;-3.10;99.90;;;;;;5050996;28;20037;-79
2023/01/19 02:43:24;;;;;;;37.25;17.45;;;-3.00;99.90;;;;;;5051651;28;20488;-79
2023/01/19 02:45:50;;;;;;;37.47;18.27;;;-3.00;99.90;;;;;;5062607;28;20044;-78
2023/01/19 02:48:19;;;;;;;37.88;16.08;;;-3.00;99.90;;;;;;5071228;28;20036;-78
2023/01/19 02:50:49;;;;;;;33.65;17.15;;;-3.10;99.90;;;;;;5071821;28;20044;-77
2023/01/19 02:53:41;;;;;;;36.17;17.00;;;-3.10;99.90;;;;;;5064127;28;20036;-78
2023/01/19 02:56:51;;;;;;;32.90;17.95;;;-3.10;99.90;;;;;;5052319;28;20373;-77
2023/01/19 02:59:27;;;;;;;36.50;16.83;;;-3.00;99.90;;;;;;5029124;28;20462;-78
2023/01/19 03:02:11;;;;;;;38.72;18.10;;;-3.10;99.90;;;;;;5043152;28;20052;-78
2023/01/19 03:04:49;;;;;;;34.40;17.08;;;-3.10;99.90;;;;;;5052195;28;20390;-78
2023/01/19 03:07:36;;;;;;;33.67;16.85;;;-3.10;99.90;;;;;;5051363;28;20394;-78
2023/01/19 03:10:10;;;;;;;37.83;16.48;;;-3.10;99.90;;;;;;5051879;28;20036;-79
2023/01/19 03:13:05;;;;;;;32.47;16.63;;;-3.10;99.90;;;;;;5044058;28;20493;-78
2023/01/19 03:15:48;;;;;;;35.72;17.45;;;-3.00;99.90;;;;;;5050821;28;20041;-78
2023/01/19 03:18:23;;;;;;;33.60;17.20;;;-2.90;99.90;;;;;;5051279;28;20044;-77
2023/01/19 03:20:53;;;;;;;38.42;19.10;;;-2.90;99.90;;;;;;5051221;28;20350;-78
2023/01/19 03:23:23;;;;;;;35.72;19.38;;;-2.80;99.90;;;;;;5051334;28;20505;-78
2023/01/19 03:25:51;;;;;;;35.45;18.13;;;-2.70;99.90;;;;;;5045869;28;20029;-79
2023/01/19 03:28:20;;;;;;;35.58;18.60;;;-2.70;99.90;;;;;;5051011;28;20037;-78
2023/01/19 03:30:54;;;;;;;35.40;20.02;;;-2.60;99.90;;;;;;5050793;28;20056;-77
2023/01/19 03:33:28;;;;;;;35.35;18.65;;;-2.60;99.90;;;;;;5051082;28;20029;-78
2023/01/19 03:36:02;;;;;;;31.42;18.08;;;-2.50;99.90;;;;;;5051650;28;20044;-79
2023/01/19 03:38:33;;;;;;;39.67;19.90;;;-2.40;99.90;;;;;;5050853;28;20045;-79
2023/01/19 03:41:05;;;;;;;39.75;20.33;;;-2.30;99.90;;;;;;5050477;28;20037;-79
2023/01/19 03:43:34;;;;;;;35.78;18.25;;;-2.30;99.90;;;;;;5050848;28;20032;-79
2023/01/19 03:46:01;;;;;;;34.92;17.95;;;-2.20;99.10;;;;;;5051138;28;20367;-79
2023/01/19 03:48:27;;;;;;;34.08;19.38;;;-2.20;97.20;;;;;;5050707;28;20045;-79
2023/01/19 03:50:54;;;;;;;39.08;18.83;;;-2.20;95.20;;;;;;5049429;28;20041;-79
2023/01/19 03:53:23;;;;;;;36.13;18.45;;;-2.10;94.30;;;;;;5050533;28;20462;-79
2023/01/19 03:55:51;;;;;;;33.40;18.55;;;-2.10;93.30;;;;;;5051372;28;20037;-79
2023/01/19 03:58:17;;;;;;;37.55;17.85;;;-2.10;94.40;;;;;;5049513;28;20048;-79
2023/01/19 04:00:44;;;;;;;32.83;18.27;;;-2.00;94.20;;;;;;5049846;28;20580;-78
2023/01/19 04:03:13;;;;;;;35.47;18.70;;;-2.00;93.50;;;;;;5050936;28;20033;-79
2023/01/19 04:05:40;;;;;;;35.67;17.45;;;-2.10;90.10;;;;;;5051614;28;20037;-79
2023/01/19 04:08:07;;;;;;;31.05;17.27;;;-2.10;83.60;;;;;;5051350;28;20040;-78
2023/01/19 04:10:33;;;;;;;31.38;17.15;;;-2.10;89.60;;;;;;5050137;28;20029;-77
2023/01/19 04:13:00;;;;;;;34.58;18.02;;;-2.10;92.20;;;;;;5050798;28;20037;-77
2023/01/19 04:15:27;;;;;;;34.22;19.25;;;-2.10;90.50;;;;;;5050849;28;20033;-80
2023/01/19 04:17:56;;;;;;;38.20;18.70;;;-2.10;84.10;;;;;;5050813;28;20053;-80
2023/01/19 04:20:23;;;;;;;41.67;18.80;;;-2.10;78.00;;;;;;5049458;28;20041;-79
2023/01/19 04:22:49;;;;;;;32.88;16.35;;;-2.20;72.80;;;;;;5051763;28;20028;-81
2023/01/19 04:25:15;;;;;;;35.80;17.13;;;-2.30;69.40;;;;;;5055537;28;20025;-79
2023/01/19 04:27:42;;;;;;;36.38;17.90;;;-2.30;68.50;;;;;;5055072;28;20036;-80
2023/01/19 04:30:09;;;;;;;27.02;16.15;;;-2.40;68.20;;;;;;5054852;28;20037;-80
2023/01/19 04:32:35;;;;;;;29.63;17.38;;;-2.40;68.30;;;;;;5052658;28;20036;-80
2023/01/19 04:35:01;;;;;;;33.78;16.98;;;-2.50;69.80;;;;;;5054998;28;20036;-80
2023/01/19 04:37:27;;;;;;;34.35;17.80;;;-2.50;75.50;;;;;;5054190;28;20045;-80
2023/01/19 04:39:54;;;;;;;29.95;17.67;;;-2.50;79.60;;;;;;5054842;28;20037;-80
2023/01/19 04:42:20;;;;;;;31.80;17.35;;;-2.50;84.30;;;;;;5052992;28;20040;-79
2023/01/19 04:44:46;;;;;;;29.40;17.20;;;-2.50;87.40;;;;;;5054915;28;20048;-80
2023/01/19 04:47:13;;;;;;;32.85;18.45;;;-2.40;94.60;;;;;;5053425;28;20025;-80
2023/01/19 04:49:39;;;;;;;33.30;17.73;;;-2.40;98.90;;;;;;5048081;28;20028;-79
2023/01/19 04:52:05;;;;;;;35.38;18.65;;;-2.30;99.80;;;;;;5044240;28;20030;-81
2023/01/19 04:54:32;;;;;;;30.90;17.30;;;-2.30;99.90;;;;;;5053890;28;20029;-81
2023/01/19 04:56:58;;;;;;;37.50;19.83;;;-2.20;99.90;;;;;;5054500;28;20033;-81
2023/01/19 04:59:24;;;;;;;32.97;18.10;;;-2.10;99.90;;;;;;5051656;28;20045;-80
2023/01/19 05:01:50;;;;;;;45.28;20.50;;;-2.10;99.90;;;;;;5028798;28;20045;-80
2023/01/19 05:04:17;;;;;;;34.95;19.67;;;-2.10;99.90;;;;;;5043130;28;20033;-80
2023/01/19 05:06:43;;;;;;;46.60;23.88;;;-2.20;99.90;;;;;;5050037;28;20040;-80
2023/01/19 05:09:12;;;;;;;39.70;20.25;;;-2.20;99.90;;;;;;5046500;28;20036;-85
2023/01/19 05:11:39;;;;;;;45.25;20.45;;;-2.30;98.10;;;;;;5043054;28;20040;-84
2023/01/19 05:14:05;;;;;;;41.95;19.20;;;-2.40;98.00;;;;;;5047570;28;20390;-86
2023/01/19 05:16:33;;;;;;;33.15;18.00;;;-2.40;97.90;;;;;;5049505;28;20029;-86
2023/01/19 05:19:00;;;;;;;37.22;19.92;;;-2.50;97.90;;;;;;5045902;28;20049;-83
2023/01/19 05:21:26;;;;;;;35.00;19.10;;;-2.50;96.80;;;;;;5055544;28;20025;-85
2023/01/19 05:23:52;;;;;;;31.38;17.80;;;-2.60;99.80;;;;;;5056821;28;20032;-86
2023/01/19 05:26:18;;;;;;;49.05;26.10;;;-2.50;99.90;;;;;;5054923;28;20036;-79
2023/01/19 05:28:44;;;;;;;48.20;27.65;;;-2.50;99.90;;;;;;5052955;28;20033;-81
2023/01/19 05:31:10;;;;;;;35.10;19.60;;;-2.40;99.90;;;;;;5046715;28;20036;-81
2023/01/19 05:33:36;;;;;;;51.55;25.38;;;-2.40;99.90;;;;;;5035924;28;20038;-81
2023/01/19 05:36:03;;;;;;;38.75;20.70;;;-2.30;99.90;;;;;;5033116;28;20033;-81
2023/01/19 05:38:29;;;;;;;33.72;19.08;;;-2.30;99.90;;;;;;5040558;28;20041;-81
2023/01/19 05:40:57;;;;;;;34.50;19.27;;;-2.30;99.90;;;;;;5035529;28;20506;-80
2023/01/19 05:43:26;;;;;;;39.15;20.25;;;-2.30;99.90;;;;;;5036844;28;20034;-80
2023/01/19 05:45:52;;;;;;;39.22;20.00;;;-2.30;99.90;;;;;;5033107;28;20033;-81
2023/01/19 05:48:19;;;;;;;41.13;19.98;;;-2.20;99.90;;;;;;5040646;28;20037;-81
2023/01/19 05:50:48;;;;;;;43.95;19.63;;;-2.20;99.90;;;;;;5047825;28;20394;-80
2023/01/19 05:53:15;;;;;;;38.80;19.50;;;-2.20;99.90;;;;;;5044437;28;20036;-78
2023/01/19 05:55:41;;;;;;;35.47;19.67;;;-2.30;99.90;;;;;;5033354;28;20128;-79
2023/01/19 05:58:08;;;;;;;40.65;19.95;;;-2.30;99.90;;;;;;5034162;28;20486;-80
2023/01/19 06:00:34;;;;;;;38.78;20.85;;;-2.30;99.90;;;;;;5042055;28;20045;-80
2023/01/19 06:03:00;;;;;;;46.67;21.25;;;-2.30;99.90;;;;;;5052927;28;20044;-81
2023/01/19 06:05:27;;;;;;;41.67;20.80;;;-2.30;99.90;;;;;;5052155;28;20040;-81
2023/01/19 06:07:56;;;;;;;44.45;21.67;;;-2.30;99.90;;;;;;5049854;28;20037;-80
2023/01/19 06:10:22;;;;;;;37.78;20.55;;;-2.40;99.90;;;;;;5049578;28;20029;-79
2023/01/19 06:12:49;;;;;;;43.25;21.10;;;-2.40;99.90;;;;;;5040177;28;20033;-81
2023/01/19 06:15:15;;;;;;;37.75;20.83;;;-2.50;99.90;;;;;;5050305;28;20029;-81
2023/01/19 06:17:41;;;;;;;39.33;20.98;;;-2.40;99.90;;;;;;5028678;28;20037;-82
2023/01/19 06:20:08;;;;;;;39.53;20.45;;;-2.50;99.90;;;;;;5049923;28;20048;-82
2023/01/19 06:22:35;;;;;;;45.08;20.77;;;-2.50;99.90;;;;;;5052768;28;20033;-82
2023/01/19 06:25:01;;;;;;;38.55;21.02;;;-2.50;99.90;;;;;;5052892;28;20036;-82
2023/01/19 06:27:27;;;;;;;49.45;23.65;;;-2.30;99.90;;;;;;5052840;28;20508;-82
2023/01/19 06:29:53;;;;;;;44.58;22.52;;;-2.10;99.90;;;;;;5050044;28;20037;-81
2023/01/19 06:32:19;;;;;;;45.42;23.10;;;-1.90;99.90;;;;;;5053294;28;20055;-82
2023/01/19 06:34:45;;;;;;;43.65;22.50;;;-1.80;99.90;;;;;;5052502;28;20033;-82
2023/01/19 06:37:15;;;;;;;43.78;22.70;;;-1.80;99.90;;;;;;5052727;28;20040;-82
2023/01/19 06:39:44;;;;;;;41.15;22.70;;;-1.70;99.90;;;;;;5051614;28;20394;-83
2023/01/19 06:42:10;;;;;;;41.35;22.02;;;-1.60;99.90;;;;;;5056140;28;20037;-82
2023/01/19 06:44:36;;;;;;;47.42;24.08;;;-1.60;99.90;;;;;;5051024;28;20033;-83
2023/01/19 06:47:03;;;;;;;39.50;20.77;;;-1.60;99.90;;;;;;5053633;28;20048;-84
2023/01/19 06:49:29;;;;;;;43.00;21.48;;;-1.50;98.10;;;;;;5052986;28;20040;-82
2023/01/19 06:51:55;;;;;;;42.40;21.50;;;-1.50;93.20;;;;;;5052294;28;20070;-83
2023/01/19 06:54:21;;;;;;;42.55;21.05;;;-1.50;88.50;;;;;;5052803;28;20025;-84
2023/01/19 06:56:47;;;;;;;37.03;21.35;;;-1.50;80.30;;;;;;5052925;28;20039;-83
2023/01/19 06:59:14;;;;;;;103.32;47.45;;;-1.40;75.00;;;;;;5036560;28;20044;-84
2023/01/19 07:01:40;;;;;;;45.15;24.15;;;-1.40;70.10;;;;;;5036814;28;20046;-83
2023/01/19 07:04:06;;;;;;;592.47;272.67;;;-1.40;67.60;;;;;;5053511;28;20386;-83
2023/01/19 07:06:32;;;;;;;61.05;34.45;;;-1.40;64.30;;;;;;5060605;28;20037;-83
2023/01/19 07:08:59;;;;;;;62.80;31.98;;;-1.30;62.30;;;;;;5036470;28;20045;-83
2023/01/19 07:11:25;;;;;;;55.30;27.85;;;-1.30;60.60;;;;;;5056608;28;20035;-80
2023/01/19 07:13:54;;;;;;;127.13;54.53;;;-1.20;59.70;;;;;;5074390;28;20035;-83
2023/01/19 07:16:20;;;;;;;90.40;43.70;;;-1.20;59.80;;;;;;5072793;28;20059;-84
2023/01/19 07:18:47;;;;;;;179.15;74.20;;;-1.10;61.40;;;;;;5047529;28;20042;-84
2023/01/19 07:21:14;;;;;;;55.65;30.23;;;-1.10;60.10;;;;;;5039731;28;20030;-84
2023/01/19 07:23:42;;;;;;;50.05;25.23;;;-1.00;59.20;;;;;;5033946;28;20036;-84
2023/01/19 07:26:09;;;;;;;43.95;23.02;;;-0.90;56.20;;;;;;5066215;28;20064;-84
2023/01/19 07:28:36;;;;;;;51.60;26.17;;;-0.90;52.30;;;;;;5052953;28;20097;-84
2023/01/19 07:31:02;;;;;;;43.17;23.48;;;-0.80;48.80;;;;;;5051644;28;20384;-84
2023/01/19 07:33:28;;;;;;;33.08;20.00;;;-0.80;46.70;;;;;;5052023;28;20028;-85
2023/01/19 07:35:54;;;;;;;39.58;22.75;;;-0.80;44.70;;;;;;5052182;28;20029;-84
2023/01/19 07:38:21;;;;;;;32.72;18.50;;;-0.70;44.00;;;;;;5052737;28;20051;-84
2023/01/19 07:40:48;;;;;;;33.33;20.75;;;-0.70;43.90;;;;;;5051241;28;20025;-85
2023/01/19 07:43:15;;;;;;;29.10;17.50;;;-0.70;42.90;;;;;;5052597;28;20029;-85
2023/01/19 07:45:42;;;;;;;31.42;16.92;;;-0.60;44.20;;;;;;5052648;28;20025;-85
2023/01/19 07:48:08;;;;;;;35.13;20.05;;;-0.60;43.20;;;;;;5054300;28;20501;-85
2023/01/19 07:50:34;;;;;;;29.33;17.38;;;-0.50;44.30;;;;;;5052881;28;20029;-85
2023/01/19 07:53:05;;;;;;;29.17;16.52;;;-0.40;44.90;;;;;;5054893;28;20040;-82
2023/01/19 07:55:31;;;;;;;26.83;16.48;;;-0.30;39.80;;;;;;5058327;28;20036;-83
2023/01/19 07:57:58;;;;;;;32.42;17.20;;;-0.30;34.40;;;;;;5064015;28;20040;-84
2023/01/19 08:00:24;;;;;;;37.25;18.58;;;-0.20;29.80;;;;;;5050610;28;20049;-79
2023/01/19 08:02:52;;;;;;;24.70;15.90;;;-0.10;26.30;;;;;;5059578;28;20041;-85
2023/01/19 08:05:19;;;;;;;26.60;14.90;;;-0.10;22.20;;;;;;5057147;28;20044;-85
2023/01/19 08:07:46;;;;;;;21.20;12.65;;;0.00;18.40;;;;;;5056161;28;20486;-85
2023/01/19 08:10:13;;;;;;;27.40;13.80;;;0.00;12.00;;;;;;5061580;28;20381;-83
2023/01/19 08:12:40;;;;;;;25.65;14.02;;;0.10;7.30;;;;;;5055778;28;20481;-84
2023/01/19 08:15:08;;;;;;;27.40;15.57;;;0.20;3.50;;;;;;5049763;28;20040;-84
2023/01/19 08:17:35;;;;;;;30.60;16.08;;;0.20;1.00;;;;;;5050039;28;20040;-86
2023/01/19 08:20:01;;;;;;;26.65;14.93;;;0.20;1.00;;;;;;5052766;28;20044;-81
2023/01/19 08:22:28;;;;;;;21.75;13.40;;;0.20;1.00;;;;;;5055697;28;20028;-83
2023/01/19 08:24:54;;;;;;;25.27;13.60;;;0.30;1.00;;;;;;5056555;28;20454;-82
2023/01/19 08:27:20;;;;;;;20.38;11.88;;;0.30;1.00;;;;;;5055442;28;20211;-82
2023/01/19 08:29:47;;;;;;;26.80;13.27;;;0.40;1.00;;;;;;5050641;28;20029;-84
2023/01/19 08:32:13;;;;;;;17.30;11.65;;;0.40;1.00;;;;;;5036206;28;20025;-82
2023/01/19 08:34:39;;;;;;;20.60;11.90;;;0.50;1.00;;;;;;5053822;28;20029;-82
2023/01/19 08:37:05;;;;;;;27.05;17.08;;;0.60;1.00;;;;;;5053324;28;20048;-83
2023/01/19 08:39:32;;;;;;;20.55;13.32;;;0.70;1.00;;;;;;5035422;28;20054;-83
2023/01/19 08:41:59;;;;;;;21.00;12.30;;;0.80;1.00;;;;;;5035690;28;20037;-84
2023/01/19 08:44:26;;;;;;;21.77;11.77;;;1.00;1.00;;;;;;5036919;28;20037;-84
2023/01/19 08:46:53;;;;;;;20.38;11.68;;;1.00;1.00;;;;;;5037205;28;20404;-84
2023/01/19 08:49:19;;;;;;;18.80;11.52;;;1.10;1.00;;;;;;5035669;28;20037;-83
2023/01/19 08:51:45;;;;;;;19.95;12.15;;;1.10;1.00;;;;;;5034646;28;20387;-85
2023/01/19 08:54:12;;;;;;;21.00;11.57;;;1.10;1.00;;;;;;5050645;28;20386;-85
2023/01/19 08:56:39;;;;;;;19.67;12.25;;;1.20;1.00;;;;;;5053024;28;20040;-82
2023/01/19 08:59:05;;;;;;;22.45;12.23;;;1.30;1.00;;;;;;5055145;28;20048;-84
2023/01/19 09:01:31;;;;;;;23.75;12.95;;;1.30;1.00;;;;;;5053006;28;20063;-84
2023/01/19 09:03:57;;;;;;;28.08;15.88;;;1.30;1.00;;;;;;5055138;28;20038;-85
2023/01/19 09:06:24;;;;;;;28.55;16.45;;;1.30;1.00;;;;;;5051971;28;20481;-85
2023/01/19 09:08:50;;;;;;;25.42;13.25;;;1.30;1.00;;;;;;5049664;28;20501;-84
2023/01/19 09:11:16;;;;;;;19.75;12.18;;;1.30;1.00;;;;;;5048405;28;20025;-84
2023/01/19 09:13:42;;;;;;;19.08;11.10;;;1.30;1.00;;;;;;5055385;28;20029;-82
2023/01/19 09:16:11;;;;;;;17.35;11.00;;;1.40;1.00;;;;;;5056077;28;20032;-84
2023/01/19 09:18:38;;;;;;;16.33;9.98;;;1.50;1.00;;;;;;5055876;28;20048;-83
2023/01/19 09:21:04;;;;;;;15.55;10.82;;;1.50;1.00;;;;;;5052927;28;20041;-84
2023/01/19 09:23:31;;;;;;;18.88;10.40;;;1.50;1.00;;;;;;5055086;28;20064;-84
2023/01/19 09:26:03;;;;;;;18.92;10.05;;;1.40;1.00;;;;;;5053738;28;20040;-85
2023/01/19 09:28:29;;;;;;;17.35;10.38;;;1.40;1.00;;;;;;5054286;28;20039;-82
2023/01/19 09:30:56;;;;;;;18.30;10.35;;;1.50;1.00;;;;;;5041365;28;20034;-84
2023/01/19 09:33:23;;;;;;;19.25;9.88;;;1.50;1.00;;;;;;5034739;28;20041;-82
2023/01/19 09:35:50;;;;;;;16.30;9.30;;;1.40;1.00;;;;;;5033983;28;20331;-80
2023/01/19 09:38:18;;;;;;;20.95;10.57;;;1.50;1.00;;;;;;5034650;28;20036;-82
2023/01/19 09:40:50;;;;;;;48.35;36.50;;;1.50;1.00;;;;;;5036791;28;20032;-80
2023/01/19 09:43:30;;;;;;;31.33;21.25;;;1.50;1.00;;;;;;5053236;28;20040;-81
2023/01/19 09:46:02;;;;;;;60.53;47.30;;;1.40;1.00;;;;;;5053620;28;20025;-82
2023/01/19 09:48:47;;;;;;;27.17;19.42;;;1.50;1.00;;;;;;5053412;28;20052;-79
2023/01/19 09:51:24;;;;;;;24.00;16.30;;;1.70;1.00;;;;;;5051798;28;20035;-82
2023/01/19 09:53:55;;;;;;;19.50;14.07;;;1.90;1.00;;;;;;5043206;28;20052;-81
2023/01/19 09:56:22;;;;;;;14.48;10.30;;;2.00;1.00;;;;;;5067231;28;20037;-82
2023/01/19 09:58:50;;;;;;;21.20;13.23;;;2.10;1.00;;;;;;5054173;28;20536;-81
2023/01/19 10:01:35;;;;;;;15.23;9.93;;;2.10;1.00;;;;;;5036360;28;20050;-82
2023/01/19 10:04:25;;;;;;;20.38;10.20;;;2.10;1.00;;;;;;5045987;28;20039;-80
2023/01/19 10:07:19;;;;;;;17.13;11.65;;;2.20;1.00;;;;;;5051208;28;20036;-85
2023/01/19 10:10:16;;;;;;;14.40;9.40;;;2.30;1.00;;;;;;5035489;28;20048;-83
2023/01/19 10:13:23;;;;;;;15.15;7.95;;;2.40;1.00;;;;;;5052486;28;20036;-80
2023/01/19 10:16:17;;;;;;;14.52;7.97;;;2.50;1.00;;;;;;5052554;28;20044;-80
2023/01/19 10:18:46;;;;;;;12.57;7.57;;;2.60;1.00;;;;;;5053340;28;20037;-82
2023/01/19 10:21:37;;;;;;;13.70;8.20;;;2.60;1.00;;;;;;5051578;28;20032;-82
2023/01/19 10:24:24;;;;;;;13.57;8.43;;;2.70;1.00;;;;;;5051919;28;20496;-80
2023/01/19 10:26:53;;;;;;;14.68;8.25;;;2.70;1.00;;;;;;5052504;28;20065;-81
2023/01/19 10:29:25;;;;;;;15.98;9.55;;;2.80;1.00;;;;;;5052729;28;20045;-81
2023/01/19 10:32:07;;;;;;;13.23;8.38;;;2.80;1.00;;;;;;5049484;28;20025;-81
2023/01/19 10:34:33;;;;;;;15.00;9.27;;;2.80;1.00;;;;;;5039582;28;20045;-80
2023/01/19 10:37:33;;;;;;;22.30;10.55;;;2.80;1.00;;;;;;5050896;28;20041;-81
2023/01/19 10:40:08;;;;;;;16.25;10.27;;;3.00;1.00;;;;;;5028557;28;20053;-80
2023/01/19 10:42:35;;;;;;;15.68;11.02;;;3.30;1.00;;;;;;5052128;28;20039;-80
2023/01/19 10:45:02;;;;;;;17.27;9.68;;;3.40;1.00;;;;;;5052739;28;20413;-80
2023/01/19 10:47:35;;;;;;;14.15;9.07;;;3.40;1.00;;;;;;5052563;28;20040;-81
2023/01/19 10:50:22;;;;;;;15.18;8.82;;;3.40;1.00;;;;;;5051403;28;20036;-80
2023/01/19 10:52:54;;;;;;;14.05;9.32;;;3.30;1.00;;;;;;5046396;28;20080;-80
2023/01/19 10:55:30;;;;;;;13.88;8.02;;;3.20;1.00;;;;;;5032863;28;20034;-80
2023/01/19 10:57:58;;;;;;;13.85;9.70;;;3.30;1.00;;;;;;5046512;28;20025;-80
2023/01/19 11:00:36;;;;;;;50.85;29.75;;;3.30;1.00;;;;;;5042922;28;20053;-80
2023/01/19 11:03:19;;;;;;;20.48;10.95;;;3.30;1.00;;;;;;5034788;28;20387;-80
2023/01/19 11:05:45;;;;;;;14.98;8.25;;;3.30;1.00;;;;;;5035121;28;20478;-80
2023/01/19 11:08:30;;;;;;;14.90;8.82;;;3.30;1.00;;;;;;5032626;28;20521;-80
2023/01/19 11:11:07;;;;;;;22.88;13.05;;;3.40;1.00;;;;;;5036178;28;20028;-80
2023/01/19 11:13:34;;;;;;;21.77;11.90;;;3.40;1.00;;;;;;5021236;28;20052;-80
2023/01/19 11:16:14;;;;;;;17.58;11.55;;;3.40;1.00;;;;;;5032963;28;20064;-81
2023/01/19 11:18:42;;;;;;;13.68;8.38;;;3.40;1.00;;;;;;5046100;28;20485;-80
2023/01/19 11:21:16;;;;;;;15.02;8.82;;;3.30;1.00;;;;;;5050641;28;20033;-80
2023/01/19 11:23:50;;;;;;;16.15;8.90;;;3.30;1.00;;;;;;5040252;28;20030;-79
2023/01/19 11:26:41;;;;;;;13.38;8.23;;;3.40;1.00;;;;;;5050777;28;20033;-80
2023/01/19 11:29:21;;;;;;;16.92;10.13;;;3.50;1.00;;;;;;5051548;28;20040;-81
2023/01/19 11:31:49;;;;;;;14.55;9.43;;;3.40;1.00;;;;;;5052773;28;20037;-79
2023/01/19 11:34:32;;;;;;;10.77;8.45;;;3.50;1.00;;;;;;5076715;28;20031;-79
2023/01/19 11:37:22;;;;;;;11.88;7.57;;;3.50;1.00;;;;;;5072358;28;20048;-79
2023/01/19 11:39:54;;;;;;;13.25;8.43;;;3.40;1.00;;;;;;5062950;28;20401;-79
2023/01/19 11:42:21;;;;;;;12.60;7.90;;;3.40;1.00;;;;;;5057512;28;20037;-80
2023/01/19 11:45:04;;;;;;;14.68;8.05;;;3.30;1.00;;;;;;5055211;28;20033;-81
2023/01/19 11:47:38;;;;;;;14.90;9.00;;;3.30;1.00;;;;;;5049641;28;20036;-80
2023/01/19 11:50:25;;;;;;;13.60;8.38;;;3.20;1.00;;;;;;5053572;28;20044;-80
2023/01/19 11:53:02;;;;;;;15.63;10.30;;;3.20;1.00;;;;;;5055031;28;20050;-80
2023/01/19 11:55:57;;;;;;;15.73;9.52;;;3.20;1.00;;;;;;5055656;28;20041;-81
2023/01/19 11:58:25;;;;;;;14.10;8.35;;;3.20;1.00;;;;;;5068185;28;20044;-80
2023/01/19 12:01:11;;;;;;;12.93;8.52;;;3.20;1.00;;;;;;5040636;28;20065;-80
2023/01/19 12:03:45;;;;;;;13.75;7.90;;;3.30;1.00;;;;;;5034862;28;20038;-79
2023/01/19 12:06:19;;;;;;;13.40;9.05;;;3.20;1.00;;;;;;5035573;28;20037;-80
2023/01/19 12:09:08;;;;;;;14.40;7.95;;;3.20;1.00;;;;;;5041356;28;20033;-80
2023/01/19 12:11:39;;;;;;;24.15;10.73;;;3.20;1.00;;;;;;5053197;28;20040;-80
2023/01/19 12:14:36;;;;;;;17.73;10.93;;;3.20;1.00;;;;;;5053768;28;20029;-80
2023/01/19 12:17:05;;;;;;;12.40;7.78;;;3.10;1.00;;;;;;5045857;28;20048;-80
2023/01/19 12:19:44;;;;;;;15.18;8.40;;;3.20;1.00;;;;;;5053375;28;20041;-80
2023/01/19 12:22:14;;;;;;;11.00;7.35;;;3.10;1.00;;;;;;5040653;28;20048;-79
2023/01/19 12:24:52;;;;;;;12.88;8.57;;;3.10;1.00;;;;;;5049008;28;20029;-80
2023/01/19 12:27:42;;;;;;;17.23;9.07;;;3.10;1.00;;;;;;5054638;28;20032;-80
2023/01/19 12:30:29;;;;;;;16.30;9.15;;;3.10;1.00;;;;;;5047261;28;20034;-79
2023/01/19 12:33:34;;;;;;;14.55;8.38;;;3.10;1.00;;;;;;5047231;28;20367;-79
2023/01/19 12:36:16;;;;;;;19.42;8.95;;;3.10;1.00;;;;;;5053917;28;20477;-80
2023/01/19 12:38:42;;;;;;;;;;;3.20;1.00;;;;;;5054166;28;20029;-80
2023/01/19 12:41:20;;;;;;;15.55;7.28;;;3.30;1.00;;;;;;5053119;28;19912;-80
2023/01/19 12:44:15;;;;;;;13.27;7.80;;;3.30;1.00;;;;;;5052873;28;20033;-80
2023/01/19 12:46:44;;;;;;;15.40;8.13;;;3.30;1.00;;;;;;5052139;28;20468;-84
2023/01/19 12:49:34;;;;;;;12.48;8.05;;;3.40;1.00;;;;;;5054800;28;20052;-84
2023/01/19 12:52:11;;;;;;;14.75;8.10;;;3.40;1.00;;;;;;5052945;28;20036;-84
2023/01/19 12:54:41;;;;;;;11.05;6.72;;;3.50;1.00;;;;;;5042925;28;20032;-85
2023/01/19 12:57:18;;;;;;;12.30;7.38;;;3.60;1.00;;;;;;5044959;28;20041;-84
2023/01/19 12:59:44;;;;;;;17.30;9.35;;;3.70;1.00;;;;;;5048791;28;20068;-85